sensor_id;sensor_type;location;lat;lon;timestamp;P1;durP1;ratioP1;P2;durP2;ratioP2
47545;SDS011;50104;52.002;4.688;2023-05-23T00:00:51;18.48;;;8.15;;
47545;SDS011;50104;52.002;4.688;2023-05-23T00:05:53;13.13;;;6.85;;
47545;SDS011;50104;52.002;4.688;2023-05-23T00:10:55;14.65;;;6.60;;
47545;SDS011;50104;52.002;4.688;2023-05-23T00:15:56;11.10;;;5.95;;
47545;SDS011;50104;52.002;4.688;2023-05-23T00:20:57;11.70;;;4.90;;
47545;SDS011;50104;52.002;4.688;2023-05-23T00:25:58;10.82;;;5.72;;
47545;SDS011;50104;52.002;4.688;2023-05-23T00:30:59;9.15;;;4.85;;
47545;SDS011;50104;52.002;4.688;2023-05-23T00:36:00;10.40;;;5.60;;
47545;SDS011;50104;52.002;4.688;2023-05-23T00:41:00;11.00;;;5.68;;
47545;SDS011;50104;52.002;4.688;2023-05-23T00:46:01;11.57;;;4.43;;
47545;SDS011;50104;52.002;4.688;2023-05-23T00:51:02;12.35;;;5.90;;
47545;SDS011;50104;52.002;4.688;2023-05-23T00:56:03;13.55;;;5.80;;
47545;SDS011;50104;52.002;4.688;2023-05-23T01:01:05;12.40;;;6.00;;
47545;SDS011;50104;52.002;4.688;2023-05-23T01:06:06;15.93;;;6.32;;
47545;SDS011;50104;52.002;4.688;2023-05-23T01:11:11;12.90;;;6.60;;
47545;SDS011;50104;52.002;4.688;2023-05-23T01:16:31;12.30;;;7.28;;
47545;SDS011;50104;52.002;4.688;2023-05-23T01:22:05;14.10;;;8.48;;
47545;SDS011;50104;52.002;4.688;2023-05-23T01:32:53;15.57;;;6.65;;
47545;SDS011;50104;52.002;4.688;2023-05-23T01:37:56;19.90;;;7.22;;
47545;SDS011;50104;52.002;4.688;2023-05-23T01:42:57;15.05;;;6.75;;
47545;SDS011;50104;52.002;4.688;2023-05-23T01:47:58;14.45;;;5.82;;
47545;SDS011;50104;52.002;4.688;2023-05-23T01:53:00;14.48;;;6.35;;
47545;SDS011;50104;52.002;4.688;2023-05-23T01:58:01;15.20;;;6.30;;
47545;SDS011;50104;52.002;4.688;2023-05-23T02:03:03;15.45;;;6.78;;
47545;SDS011;50104;52.002;4.688;2023-05-23T02:08:05;16.90;;;6.72;;
47545;SDS011;50104;52.002;4.688;2023-05-23T02:13:06;15.55;;;6.18;;
47545;SDS011;50104;52.002;4.688;2023-05-23T02:18:06;21.48;;;7.28;;
47545;SDS011;50104;52.002;4.688;2023-05-23T02:23:08;13.80;;;5.93;;
47545;SDS011;50104;52.002;4.688;2023-05-23T02:28:09;10.95;;;6.10;;
47545;SDS011;50104;52.002;4.688;2023-05-23T02:33:12;17.63;;;5.90;;
47545;SDS011;50104;52.002;4.688;2023-05-23T02:38:13;15.38;;;6.18;;
47545;SDS011;50104;52.002;4.688;2023-05-23T02:43:14;13.85;;;5.40;;
47545;SDS011;50104;52.002;4.688;2023-05-23T02:48:14;17.52;;;5.38;;
47545;SDS011;50104;52.002;4.688;2023-05-23T02:53:16;19.23;;;5.15;;
47545;SDS011;50104;52.002;4.688;2023-05-23T02:58:17;18.10;;;6.05;;
47545;SDS011;50104;52.002;4.688;2023-05-23T03:03:19;13.25;;;5.15;;
47545;SDS011;50104;52.002;4.688;2023-05-23T03:08:20;17.85;;;5.25;;
47545;SDS011;50104;52.002;4.688;2023-05-23T03:13:21;10.50;;;4.35;;
47545;SDS011;50104;52.002;4.688;2023-05-23T03:18:22;14.75;;;4.97;;
47545;SDS011;50104;52.002;4.688;2023-05-23T03:23:23;11.48;;;4.38;;
47545;SDS011;50104;52.002;4.688;2023-05-23T03:28:24;8.27;;;3.50;;
47545;SDS011;50104;52.002;4.688;2023-05-23T03:33:25;11.50;;;3.85;;
47545;SDS011;50104;52.002;4.688;2023-05-23T03:38:26;15.20;;;4.63;;
47545;SDS011;50104;52.002;4.688;2023-05-23T03:43:27;12.10;;;4.50;;
47545;SDS011;50104;52.002;4.688;2023-05-23T03:48:27;11.52;;;5.45;;
47545;SDS011;50104;52.002;4.688;2023-05-23T03:53:29;12.95;;;6.30;;
47545;SDS011;50104;52.002;4.688;2023-05-23T03:58:30;11.10;;;4.95;;
47545;SDS011;50104;52.002;4.688;2023-05-23T04:03:31;10.90;;;3.97;;
47545;SDS011;50104;52.002;4.688;2023-05-23T04:08:32;9.88;;;4.75;;
47545;SDS011;50104;52.002;4.688;2023-05-23T04:13:33;13.65;;;6.90;;
47545;SDS011;50104;52.002;4.688;2023-05-23T04:18:34;10.57;;;5.25;;
47545;SDS011;50104;52.002;4.688;2023-05-23T04:23:38;13.07;;;5.22;;
47545;SDS011;50104;52.002;4.688;2023-05-23T04:28:38;15.05;;;5.60;;
47545;SDS011;50104;52.002;4.688;2023-05-23T04:33:39;10.88;;;5.00;;
47545;SDS011;50104;52.002;4.688;2023-05-23T04:38:40;8.98;;;3.92;;
47545;SDS011;50104;52.002;4.688;2023-05-23T04:43:41;15.05;;;3.80;;
47545;SDS011;50104;52.002;4.688;2023-05-23T04:48:43;13.88;;;4.70;;
47545;SDS011;50104;52.002;4.688;2023-05-23T04:53:44;10.75;;;4.20;;
47545;SDS011;50104;52.002;4.688;2023-05-23T04:58:46;16.60;;;5.95;;
47545;SDS011;50104;52.002;4.688;2023-05-23T05:03:47;12.85;;;5.10;;
47545;SDS011;50104;52.002;4.688;2023-05-23T05:08:48;13.82;;;5.32;;
47545;SDS011;50104;52.002;4.688;2023-05-23T05:13:48;16.27;;;7.30;;
47545;SDS011;50104;52.002;4.688;2023-05-23T05:18:49;14.55;;;5.47;;
47545;SDS011;50104;52.002;4.688;2023-05-23T05:23:50;12.00;;;5.72;;
47545;SDS011;50104;52.002;4.688;2023-05-23T05:28:51;14.88;;;5.05;;
47545;SDS011;50104;52.002;4.688;2023-05-23T05:33:52;14.73;;;5.78;;
47545;SDS011;50104;52.002;4.688;2023-05-23T05:38:53;13.80;;;5.43;;
47545;SDS011;50104;52.002;4.688;2023-05-23T05:43:54;12.35;;;6.60;;
47545;SDS011;50104;52.002;4.688;2023-05-23T05:48:55;18.67;;;7.40;;
47545;SDS011;50104;52.002;4.688;2023-05-23T05:53:56;15.18;;;7.38;;
47545;SDS011;50104;52.002;4.688;2023-05-23T05:58:57;16.27;;;7.68;;
47545;SDS011;50104;52.002;4.688;2023-05-23T06:03:58;12.35;;;6.85;;
47545;SDS011;50104;52.002;4.688;2023-05-23T06:08:58;15.18;;;5.40;;
47545;SDS011;50104;52.002;4.688;2023-05-23T06:13:59;13.80;;;5.40;;
47545;SDS011;50104;52.002;4.688;2023-05-23T06:19:00;15.40;;;5.53;;
47545;SDS011;50104;52.002;4.688;2023-05-23T06:24:01;10.07;;;4.80;;
47545;SDS011;50104;52.002;4.688;2023-05-23T06:29:05;7.53;;;4.20;;
47545;SDS011;50104;52.002;4.688;2023-05-23T06:34:06;9.63;;;5.40;;
47545;SDS011;50104;52.002;4.688;2023-05-23T06:39:06;9.20;;;3.67;;
47545;SDS011;50104;52.002;4.688;2023-05-23T06:44:11;8.45;;;3.63;;
47545;SDS011;50104;52.002;4.688;2023-05-23T06:49:12;6.82;;;3.80;;
47545;SDS011;50104;52.002;4.688;2023-05-23T06:54:14;9.15;;;3.72;;
47545;SDS011;50104;52.002;4.688;2023-05-23T06:59:15;7.78;;;3.40;;
47545;SDS011;50104;52.002;4.688;2023-05-23T07:04:16;6.80;;;3.40;;
47545;SDS011;50104;52.002;4.688;2023-05-23T07:09:16;9.15;;;2.88;;
47545;SDS011;50104;52.002;4.688;2023-05-23T07:14:17;6.88;;;2.97;;
47545;SDS011;50104;52.002;4.688;2023-05-23T07:19:19;6.57;;;2.03;;
47545;SDS011;50104;52.002;4.688;2023-05-23T07:24:20;6.68;;;1.95;;
47545;SDS011;50104;52.002;4.688;2023-05-23T07:29:20;10.35;;;2.33;;
47545;SDS011;50104;52.002;4.688;2023-05-23T07:34:21;13.02;;;2.40;;
47545;SDS011;50104;52.002;4.688;2023-05-23T07:39:22;7.55;;;1.73;;
47545;SDS011;50104;52.002;4.688;2023-05-23T07:44:24;7.93;;;1.80;;
47545;SDS011;50104;52.002;4.688;2023-05-23T07:49:25;10.65;;;2.13;;
47545;SDS011;50104;52.002;4.688;2023-05-23T07:54:26;8.18;;;2.50;;
47545;SDS011;50104;52.002;4.688;2023-05-23T07:59:26;8.93;;;1.90;;
47545;SDS011;50104;52.002;4.688;2023-05-23T08:04:29;9.60;;;1.70;;
47545;SDS011;50104;52.002;4.688;2023-05-23T08:09:31;11.93;;;2.67;;
47545;SDS011;50104;52.002;4.688;2023-05-23T08:14:32;9.85;;;2.20;;
47545;SDS011;50104;52.002;4.688;2023-05-23T08:19:33;8.77;;;2.53;;
47545;SDS011;50104;52.002;4.688;2023-05-23T08:24:35;8.90;;;2.38;;
47545;SDS011;50104;52.002;4.688;2023-05-23T08:29:36;8.05;;;2.00;;
47545;SDS011;50104;52.002;4.688;2023-05-23T08:34:37;5.63;;;1.80;;
47545;SDS011;50104;52.002;4.688;2023-05-23T08:39:39;9.75;;;2.20;;
47545;SDS011;50104;52.002;4.688;2023-05-23T08:44:40;9.02;;;2.67;;
47545;SDS011;50104;52.002;4.688;2023-05-23T08:49:42;9.80;;;2.03;;
47545;SDS011;50104;52.002;4.688;2023-05-23T08:54:44;10.70;;;2.25;;
47545;SDS011;50104;52.002;4.688;2023-05-23T08:59:45;9.45;;;2.70;;
47545;SDS011;50104;52.002;4.688;2023-05-23T09:04:46;10.45;;;2.40;;
47545;SDS011;50104;52.002;4.688;2023-05-23T09:09:47;8.15;;;2.50;;
47545;SDS011;50104;52.002;4.688;2023-05-23T09:14:49;9.63;;;2.60;;
47545;SDS011;50104;52.002;4.688;2023-05-23T09:19:50;12.73;;;2.30;;
47545;SDS011;50104;52.002;4.688;2023-05-23T09:24:52;8.73;;;1.95;;
47545;SDS011;50104;52.002;4.688;2023-05-23T09:29:56;9.43;;;2.45;;
47545;SDS011;50104;52.002;4.688;2023-05-23T09:35:00;13.15;;;3.15;;
47545;SDS011;50104;52.002;4.688;2023-05-23T09:40:07;9.13;;;2.10;;
47545;SDS011;50104;52.002;4.688;2023-05-23T09:45:11;10.35;;;2.45;;
47545;SDS011;50104;52.002;4.688;2023-05-23T09:50:14;6.82;;;2.40;;
47545;SDS011;50104;52.002;4.688;2023-05-23T09:55:15;12.63;;;2.55;;
47545;SDS011;50104;52.002;4.688;2023-05-23T10:00:16;9.05;;;1.98;;
47545;SDS011;50104;52.002;4.688;2023-05-23T10:05:29;7.80;;;2.42;;
47545;SDS011;50104;52.002;4.688;2023-05-23T10:10:38;13.05;;;2.60;;
47545;SDS011;50104;52.002;4.688;2023-05-23T10:16:24;8.50;;;1.90;;
47545;SDS011;50104;52.002;4.688;2023-05-23T10:21:34;9.15;;;2.58;;
47545;SDS011;50104;52.002;4.688;2023-05-23T10:26:51;12.15;;;2.53;;
47545;SDS011;50104;52.002;4.688;2023-05-23T10:31:54;11.75;;;2.70;;
47545;SDS011;50104;52.002;4.688;2023-05-23T10:37:03;8.57;;;2.05;;
47545;SDS011;50104;52.002;4.688;2023-05-23T10:42:16;14.68;;;2.50;;
47545;SDS011;50104;52.002;4.688;2023-05-23T10:47:42;8.30;;;2.13;;
47545;SDS011;50104;52.002;4.688;2023-05-23T10:52:43;6.30;;;2.08;;
47545;SDS011;50104;52.002;4.688;2023-05-23T10:57:44;9.40;;;2.50;;
47545;SDS011;50104;52.002;4.688;2023-05-23T11:02:57;8.32;;;2.53;;
47545;SDS011;50104;52.002;4.688;2023-05-23T11:08:09;11.32;;;2.67;;
47545;SDS011;50104;52.002;4.688;2023-05-23T11:13:17;9.15;;;1.98;;
47545;SDS011;50104;52.002;4.688;2023-05-23T11:18:21;10.35;;;2.45;;
47545;SDS011;50104;52.002;4.688;2023-05-23T11:23:38;7.60;;;2.42;;
47545;SDS011;50104;52.002;4.688;2023-05-23T11:28:54;9.73;;;2.20;;
47545;SDS011;50104;52.002;4.688;2023-05-23T11:33:59;8.85;;;2.35;;
47545;SDS011;50104;52.002;4.688;2023-05-23T11:39:01;7.07;;;1.95;;
47545;SDS011;50104;52.002;4.688;2023-05-23T11:44:12;12.23;;;2.60;;
47545;SDS011;50104;52.002;4.688;2023-05-23T11:49:13;7.43;;;1.88;;
47545;SDS011;50104;52.002;4.688;2023-05-23T11:54:14;10.02;;;2.50;;
47545;SDS011;50104;52.002;4.688;2023-05-23T11:59:15;7.63;;;1.77;;
47545;SDS011;50104;52.002;4.688;2023-05-23T12:04:16;10.40;;;2.38;;
47545;SDS011;50104;52.002;4.688;2023-05-23T12:09:17;7.97;;;2.25;;
47545;SDS011;50104;52.002;4.688;2023-05-23T12:14:18;7.80;;;2.05;;
47545;SDS011;50104;52.002;4.688;2023-05-23T12:19:19;6.05;;;2.15;;
47545;SDS011;50104;52.002;4.688;2023-05-23T12:24:20;9.15;;;2.10;;
47545;SDS011;50104;52.002;4.688;2023-05-23T12:34:31;7.90;;;1.70;;
47545;SDS011;50104;52.002;4.688;2023-05-23T12:39:32;11.90;;;2.80;;
47545;SDS011;50104;52.002;4.688;2023-05-23T12:44:35;5.57;;;1.70;;
47545;SDS011;50104;52.002;4.688;2023-05-23T12:49:36;13.43;;;2.63;;
47545;SDS011;50104;52.002;4.688;2023-05-23T12:54:38;10.70;;;2.03;;
47545;SDS011;50104;52.002;4.688;2023-05-23T12:59:38;7.22;;;1.60;;
47545;SDS011;50104;52.002;4.688;2023-05-23T13:04:39;8.63;;;2.40;;
47545;SDS011;50104;52.002;4.688;2023-05-23T13:09:40;11.32;;;2.00;;
47545;SDS011;50104;52.002;4.688;2023-05-23T13:14:41;9.07;;;2.13;;
47545;SDS011;50104;52.002;4.688;2023-05-23T13:19:42;10.38;;;2.70;;
47545;SDS011;50104;52.002;4.688;2023-05-23T13:24:43;8.90;;;1.77;;
47545;SDS011;50104;52.002;4.688;2023-05-23T13:29:44;9.10;;;1.95;;
47545;SDS011;50104;52.002;4.688;2023-05-23T13:34:44;6.63;;;1.70;;
47545;SDS011;50104;52.002;4.688;2023-05-23T13:39:45;6.65;;;2.20;;
47545;SDS011;50104;52.002;4.688;2023-05-23T13:44:46;16.40;;;2.13;;
47545;SDS011;50104;52.002;4.688;2023-05-23T13:49:47;5.95;;;1.77;;
47545;SDS011;50104;52.002;4.688;2023-05-23T13:54:48;7.63;;;1.70;;
47545;SDS011;50104;52.002;4.688;2023-05-23T13:59:49;7.05;;;1.33;;
47545;SDS011;50104;52.002;4.688;2023-05-23T14:04:50;8.30;;;1.65;;
47545;SDS011;50104;52.002;4.688;2023-05-23T14:09:51;7.28;;;1.67;;
47545;SDS011;50104;52.002;4.688;2023-05-23T14:14:52;6.50;;;1.05;;
47545;SDS011;50104;52.002;4.688;2023-05-23T14:19:52;7.07;;;1.95;;
47545;SDS011;50104;52.002;4.688;2023-05-23T14:24:53;7.65;;;1.45;;
47545;SDS011;50104;52.002;4.688;2023-05-23T14:29:54;6.35;;;1.70;;
47545;SDS011;50104;52.002;4.688;2023-05-23T14:34:55;10.70;;;1.77;;
47545;SDS011;50104;52.002;4.688;2023-05-23T14:39:56;6.75;;;1.42;;
47545;SDS011;50104;52.002;4.688;2023-05-23T14:44:57;10.25;;;1.98;;
47545;SDS011;50104;52.002;4.688;2023-05-23T14:49:58;5.95;;;1.42;;
47545;SDS011;50104;52.002;4.688;2023-05-23T14:54:59;5.78;;;1.60;;
47545;SDS011;50104;52.002;4.688;2023-05-23T15:00:00;9.27;;;2.55;;
47545;SDS011;50104;52.002;4.688;2023-05-23T15:05:05;10.23;;;2.22;;
47545;SDS011;50104;52.002;4.688;2023-05-23T15:10:06;10.35;;;2.17;;
47545;SDS011;50104;52.002;4.688;2023-05-23T15:15:08;11.02;;;1.95;;
47545;SDS011;50104;52.002;4.688;2023-05-23T15:20:09;7.55;;;1.42;;
47545;SDS011;50104;52.002;4.688;2023-05-23T15:25:11;4.28;;;1.15;;
47545;SDS011;50104;52.002;4.688;2023-05-23T15:30:12;4.72;;;1.30;;
47545;SDS011;50104;52.002;4.688;2023-05-23T15:35:13;10.82;;;1.77;;
47545;SDS011;50104;52.002;4.688;2023-05-23T15:40:14;5.88;;;1.80;;
47545;SDS011;50104;52.002;4.688;2023-05-23T15:45:15;7.28;;;1.88;;
47545;SDS011;50104;52.002;4.688;2023-05-23T15:50:16;8.45;;;2.33;;
47545;SDS011;50104;52.002;4.688;2023-05-23T15:55:18;7.68;;;1.50;;
47545;SDS011;50104;52.002;4.688;2023-05-23T16:00:19;7.47;;;1.38;;
47545;SDS011;50104;52.002;4.688;2023-05-23T16:05:20;8.27;;;1.40;;
47545;SDS011;50104;52.002;4.688;2023-05-23T16:10:21;8.52;;;1.92;;
47545;SDS011;50104;52.002;4.688;2023-05-23T16:15:23;8.65;;;1.52;;
47545;SDS011;50104;52.002;4.688;2023-05-23T16:20:24;4.38;;;1.58;;
47545;SDS011;50104;52.002;4.688;2023-05-23T16:25:25;9.90;;;2.22;;
47545;SDS011;50104;52.002;4.688;2023-05-23T16:30:26;9.68;;;1.73;;
47545;SDS011;50104;52.002;4.688;2023-05-23T16:35:27;7.72;;;1.55;;
47545;SDS011;50104;52.002;4.688;2023-05-23T16:40:27;7.55;;;1.52;;
47545;SDS011;50104;52.002;4.688;2023-05-23T16:45:28;12.50;;;2.00;;
47545;SDS011;50104;52.002;4.688;2023-05-23T16:50:29;4.55;;;1.50;;
47545;SDS011;50104;52.002;4.688;2023-05-23T16:55:30;4.70;;;1.48;;
47545;SDS011;50104;52.002;4.688;2023-05-23T17:00:31;5.18;;;1.75;;
47545;SDS011;50104;52.002;4.688;2023-05-23T17:05:32;7.07;;;1.60;;
47545;SDS011;50104;52.002;4.688;2023-05-23T17:10:33;3.80;;;1.25;;
47545;SDS011;50104;52.002;4.688;2023-05-23T17:15:35;5.00;;;1.65;;
47545;SDS011;50104;52.002;4.688;2023-05-23T17:20:36;13.40;;;2.20;;
47545;SDS011;50104;52.002;4.688;2023-05-23T17:25:37;6.03;;;1.70;;
47545;SDS011;50104;52.002;4.688;2023-05-23T17:30:38;9.27;;;1.95;;
47545;SDS011;50104;52.002;4.688;2023-05-23T17:35:39;6.43;;;1.55;;
47545;SDS011;50104;52.002;4.688;2023-05-23T17:40:40;10.02;;;1.40;;
47545;SDS011;50104;52.002;4.688;2023-05-23T17:45:41;7.97;;;1.63;;
47545;SDS011;50104;52.002;4.688;2023-05-23T17:50:42;7.32;;;2.05;;
47545;SDS011;50104;52.002;4.688;2023-05-23T17:55:44;7.50;;;1.88;;
47545;SDS011;50104;52.002;4.688;2023-05-23T18:00:46;5.22;;;2.05;;
47545;SDS011;50104;52.002;4.688;2023-05-23T18:05:47;10.80;;;1.70;;
47545;SDS011;50104;52.002;4.688;2023-05-23T18:10:48;6.03;;;1.50;;
47545;SDS011;50104;52.002;4.688;2023-05-23T18:15:49;9.32;;;1.50;;
47545;SDS011;50104;52.002;4.688;2023-05-23T18:20:50;7.00;;;1.65;;
47545;SDS011;50104;52.002;4.688;2023-05-23T18:25:51;7.95;;;1.63;;
47545;SDS011;50104;52.002;4.688;2023-05-23T18:30:52;5.45;;;1.42;;
47545;SDS011;50104;52.002;4.688;2023-05-23T18:35:53;6.50;;;1.50;;
47545;SDS011;50104;52.002;4.688;2023-05-23T18:40:54;7.43;;;2.10;;
47545;SDS011;50104;52.002;4.688;2023-05-23T18:45:55;7.88;;;1.48;;
47545;SDS011;50104;52.002;4.688;2023-05-23T18:50:56;5.97;;;1.27;;
47545;SDS011;50104;52.002;4.688;2023-05-23T18:55:57;10.75;;;1.52;;
47545;SDS011;50104;52.002;4.688;2023-05-23T19:00:58;11.27;;;1.92;;
47545;SDS011;50104;52.002;4.688;2023-05-23T19:06:02;8.38;;;1.88;;
47545;SDS011;50104;52.002;4.688;2023-05-23T19:11:04;7.18;;;1.67;;
47545;SDS011;50104;52.002;4.688;2023-05-23T19:16:06;8.93;;;1.70;;
47545;SDS011;50104;52.002;4.688;2023-05-23T19:21:07;10.35;;;1.65;;
47545;SDS011;50104;52.002;4.688;2023-05-23T19:26:08;10.68;;;1.38;;
47545;SDS011;50104;52.002;4.688;2023-05-23T19:31:09;11.05;;;1.80;;
47545;SDS011;50104;52.002;4.688;2023-05-23T19:36:11;7.63;;;1.60;;
47545;SDS011;50104;52.002;4.688;2023-05-23T19:41:12;9.38;;;2.22;;
47545;SDS011;50104;52.002;4.688;2023-05-23T19:46:13;8.48;;;1.90;;
47545;SDS011;50104;52.002;4.688;2023-05-23T19:51:14;8.32;;;1.50;;
47545;SDS011;50104;52.002;4.688;2023-05-23T19:56:15;9.15;;;2.30;;
47545;SDS011;50104;52.002;4.688;2023-05-23T20:01:16;8.75;;;1.80;;
47545;SDS011;50104;52.002;4.688;2023-05-23T20:06:18;10.77;;;2.25;;
47545;SDS011;50104;52.002;4.688;2023-05-23T20:11:18;10.07;;;1.92;;
47545;SDS011;50104;52.002;4.688;2023-05-23T20:16:21;7.50;;;2.10;;
47545;SDS011;50104;52.002;4.688;2023-05-23T20:21:22;8.70;;;2.10;;
47545;SDS011;50104;52.002;4.688;2023-05-23T20:26:23;8.35;;;2.20;;
47545;SDS011;50104;52.002;4.688;2023-05-23T20:31:25;5.28;;;1.65;;
47545;SDS011;50104;52.002;4.688;2023-05-23T20:36:25;4.65;;;1.45;;
47545;SDS011;50104;52.002;4.688;2023-05-23T20:41:26;12.27;;;2.25;;
47545;SDS011;50104;52.002;4.688;2023-05-23T20:46:28;8.85;;;1.63;;
47545;SDS011;50104;52.002;4.688;2023-05-23T20:51:29;8.32;;;1.83;;
47545;SDS011;50104;52.002;4.688;2023-05-23T20:56:31;10.48;;;1.70;;
47545;SDS011;50104;52.002;4.688;2023-05-23T21:01:32;5.72;;;1.67;;
47545;SDS011;50104;52.002;4.688;2023-05-23T21:06:33;9.10;;;2.42;;
47545;SDS011;50104;52.002;4.688;2023-05-23T21:11:34;6.28;;;1.35;;
47545;SDS011;50104;52.002;4.688;2023-05-23T21:16:35;9.18;;;2.65;;
47545;SDS011;50104;52.002;4.688;2023-05-23T21:21:36;10.30;;;1.80;;
47545;SDS011;50104;52.002;4.688;2023-05-23T21:26:37;10.70;;;2.47;;
47545;SDS011;50104;52.002;4.688;2023-05-23T21:31:38;7.28;;;1.80;;
47545;SDS011;50104;52.002;4.688;2023-05-23T21:36:39;9.65;;;2.10;;
47545;SDS011;50104;52.002;4.688;2023-05-23T21:41:40;7.88;;;1.80;;
47545;SDS011;50104;52.002;4.688;2023-05-23T21:46:41;8.63;;;2.35;;
47545;SDS011;50104;52.002;4.688;2023-05-23T21:51:42;11.27;;;2.13;;
47545;SDS011;50104;52.002;4.688;2023-05-23T21:56:43;9.30;;;2.35;;
47545;SDS011;50104;52.002;4.688;2023-05-23T22:01:43;4.22;;;1.70;;
47545;SDS011;50104;52.002;4.688;2023-05-23T22:06:45;11.82;;;2.63;;
47545;SDS011;50104;52.002;4.688;2023-05-23T22:11:46;9.38;;;2.10;;
47545;SDS011;50104;52.002;4.688;2023-05-23T22:16:47;9.07;;;2.45;;
47545;SDS011;50104;52.002;4.688;2023-05-23T22:21:49;9.50;;;2.47;;
47545;SDS011;50104;52.002;4.688;2023-05-23T22:26:50;10.57;;;2.78;;
47545;SDS011;50104;52.002;4.688;2023-05-23T22:31:50;7.95;;;2.53;;
47545;SDS011;50104;52.002;4.688;2023-05-23T22:36:51;17.55;;;2.72;;
47545;SDS011;50104;52.002;4.688;2023-05-23T22:41:52;11.57;;;2.10;;
47545;SDS011;50104;52.002;4.688;2023-05-23T22:46:53;10.52;;;2.10;;
47545;SDS011;50104;52.002;4.688;2023-05-23T22:51:54;11.48;;;2.40;;
47545;SDS011;50104;52.002;4.688;2023-05-23T22:56:55;10.90;;;2.60;;
47545;SDS011;50104;52.002;4.688;2023-05-23T23:01:56;10.38;;;2.70;;
47545;SDS011;50104;52.002;4.688;2023-05-23T23:06:57;13.00;;;2.25;;
47545;SDS011;50104;52.002;4.688;2023-05-23T23:12:00;11.15;;;2.58;;
47545;SDS011;50104;52.002;4.688;2023-05-23T23:17:01;7.10;;;2.40;;
47545;SDS011;50104;52.002;4.688;2023-05-23T23:22:02;12.10;;;2.42;;
47545;SDS011;50104;52.002;4.688;2023-05-23T23:27:03;9.15;;;2.58;;
47545;SDS011;50104;52.002;4.688;2023-05-23T23:32:04;8.65;;;2.58;;
47545;SDS011;50104;52.002;4.688;2023-05-23T23:37:05;10.57;;;2.55;;
47545;SDS011;50104;52.002;4.688;2023-05-23T23:42:06;8.48;;;2.53;;
47545;SDS011;50104;52.002;4.688;2023-05-23T23:47:07;12.50;;;2.42;;
47545;SDS011;50104;52.002;4.688;2023-05-23T23:52:08;9.73;;;2.75;;
47545;SDS011;50104;52.002;4.688;2023-05-23T23:57:09;12.10;;;2.92;;
